createdAt,value
2024-03-04T00:00:42.491Z,3.30
2024-03-04T00:03:10.130Z,3.25
2024-03-04T00:05:40.349Z,2.70
2024-03-04T00:08:08.683Z,2.58
2024-03-04T00:10:36.303Z,2.85
2024-03-04T00:13:04.094Z,2.80
2024-03-04T00:15:32.258Z,2.72
2024-03-04T00:18:01.225Z,3.10
2024-03-04T00:20:28.777Z,2.63
2024-03-04T00:22:56.148Z,3.25
2024-03-04T00:25:23.702Z,2.92
2024-03-04T00:27:52.422Z,2.35
2024-03-04T00:30:20.321Z,3.03
2024-03-04T00:32:49.284Z,2.63
2024-03-04T00:35:17.281Z,2.40
2024-03-04T00:37:45.048Z,2.85
2024-03-04T00:40:15.826Z,2.42
2024-03-04T00:42:43.504Z,1.83
2024-03-04T00:45:11.286Z,2.30
2024-03-04T00:47:39.041Z,3.13
2024-03-04T00:50:07.215Z,2.40
2024-03-04T00:52:34.733Z,2.38
2024-03-04T00:55:02.394Z,2.67
2024-03-04T00:57:29.873Z,2.25
2024-03-04T00:59:58.122Z,2.05
2024-03-04T01:02:25.735Z,2.42
2024-03-04T01:04:53.115Z,2.40
2024-03-04T01:07:20.646Z,2.38
2024-03-04T01:09:48.065Z,2.10
2024-03-04T01:12:15.851Z,2.30
2024-03-04T01:14:43.224Z,2.45
2024-03-04T01:17:18.486Z,2.53
2024-03-04T01:19:48.840Z,2.78
2024-03-04T01:22:18.005Z,2.22
2024-03-04T01:24:46.494Z,2.50
2024-03-04T01:27:14.451Z,1.90
2024-03-04T01:29:43.127Z,2.55
2024-03-04T01:32:11.423Z,2.58
2024-03-04T01:34:42.245Z,2.20
2024-03-04T01:37:11.662Z,2.15
2024-03-04T01:39:39.437Z,2.55
2024-03-04T01:42:07.512Z,2.28
2024-03-04T01:44:39.643Z,2.35
2024-03-04T01:47:19.245Z,2.42
2024-03-04T01:49:47.920Z,2.08
2024-03-04T01:52:17.805Z,2.75
2024-03-04T01:54:49.930Z,2.00
2024-03-04T01:57:19.083Z,2.30
2024-03-04T01:59:52.826Z,1.83
2024-03-04T02:02:21.182Z,2.30
2024-03-04T02:04:48.751Z,1.60
2024-03-04T02:07:18.574Z,2.28
2024-03-04T02:09:47.587Z,1.95
2024-03-04T02:12:15.785Z,2.10
2024-03-04T02:14:44.468Z,1.55
2024-03-04T02:17:12.175Z,1.75
2024-03-04T02:19:39.779Z,1.90
2024-03-04T02:22:10.491Z,1.70
2024-03-04T02:24:39.494Z,1.52
2024-03-04T02:27:06.994Z,1.65
2024-03-04T02:29:35.027Z,2.65
2024-03-04T02:32:03.563Z,1.65
2024-03-04T02:34:31.594Z,1.98
2024-03-04T02:36:59.914Z,1.85
2024-03-04T02:39:28.553Z,1.55
2024-03-04T02:41:56.336Z,1.50
2024-03-04T02:44:23.995Z,1.45
2024-03-04T02:46:53.117Z,1.35
2024-03-04T02:49:21.058Z,1.58
2024-03-04T02:51:48.958Z,1.50
2024-03-04T02:54:16.524Z,1.48
2024-03-04T02:56:44.282Z,1.92
2024-03-04T02:59:12.092Z,1.90
2024-03-04T03:01:40.872Z,2.10
2024-03-04T03:04:08.609Z,1.55
2024-03-04T03:06:37.072Z,1.95
2024-03-04T03:09:05.915Z,2.00
2024-03-04T03:11:34.249Z,1.77
2024-03-04T03:14:02.177Z,1.65
2024-03-04T03:16:29.727Z,1.52
2024-03-04T03:18:57.775Z,1.55
2024-03-04T03:21:25.569Z,1.50
2024-03-04T03:23:53.159Z,1.40
2024-03-04T03:26:21.138Z,1.65
2024-03-04T03:28:48.723Z,1.55
2024-03-04T03:31:19.458Z,1.40
2024-03-04T03:33:47.090Z,1.40
2024-03-04T03:36:14.659Z,1.42
2024-03-04T03:38:43.556Z,1.60
2024-03-04T03:41:11.399Z,1.42
2024-03-04T03:43:39.058Z,1.20
2024-03-04T03:46:06.727Z,1.38
2024-03-04T03:48:34.343Z,1.50
2024-03-04T03:51:02.183Z,1.25
2024-03-04T03:53:29.654Z,1.65
2024-03-04T03:55:58.003Z,1.77
2024-03-04T03:58:25.610Z,1.48
2024-03-04T04:00:53.329Z,1.17
2024-03-04T04:03:22.871Z,1.00
2024-03-04T04:05:50.847Z,1.73
2024-03-04T04:08:18.361Z,1.25
2024-03-04T04:10:45.991Z,1.40
2024-03-04T04:13:13.747Z,1.25
2024-03-04T04:15:41.341Z,1.98
2024-03-04T04:18:09.047Z,1.27
2024-03-04T04:20:36.770Z,1.35
2024-03-04T04:23:05.268Z,1.30
2024-03-04T04:25:33.164Z,1.30
2024-03-04T04:28:00.928Z,1.17
2024-03-04T04:30:28.614Z,1.13
2024-03-04T04:32:56.349Z,1.30
2024-03-04T04:35:24.019Z,1.33
2024-03-04T04:37:52.096Z,1.45
2024-03-04T04:40:22.743Z,1.25
2024-03-04T04:42:50.587Z,1.58
2024-03-04T04:45:19.217Z,1.35
2024-03-04T04:47:46.966Z,1.05
2024-03-04T04:50:14.587Z,1.75
2024-03-04T04:52:42.395Z,1.00
2024-03-04T04:55:10.321Z,1.15
2024-03-04T04:57:38.367Z,1.48
2024-03-04T05:00:08.039Z,1.10
2024-03-04T05:02:36.579Z,1.13
2024-03-04T05:05:05.080Z,1.20
2024-03-04T05:07:32.923Z,2.58
2024-03-04T05:10:00.507Z,1.77
2024-03-04T05:12:28.167Z,1.50
2024-03-04T05:14:56.236Z,1.55
2024-03-04T05:17:23.960Z,1.33
2024-03-04T05:19:51.631Z,1.60
2024-03-04T05:22:19.180Z,1.75
2024-03-04T05:24:46.712Z,1.42
2024-03-04T05:27:14.358Z,1.20
2024-03-04T05:29:42.107Z,1.48
2024-03-04T05:32:09.646Z,1.48
2024-03-04T05:34:39.803Z,1.10
2024-03-04T05:37:07.600Z,1.42
2024-03-04T05:39:35.083Z,1.17
2024-03-04T05:42:02.823Z,1.35
2024-03-04T05:44:30.440Z,1.10
2024-03-04T05:46:58.077Z,1.42
2024-03-04T05:49:25.637Z,1.00
2024-03-04T05:51:53.669Z,1.40
2024-03-04T05:54:21.544Z,1.58
2024-03-04T05:56:50.127Z,1.00
2024-03-04T05:59:17.960Z,1.63
2024-03-04T06:01:46.748Z,1.08
2024-03-04T06:04:14.387Z,1.23
2024-03-04T06:06:42.180Z,1.48
2024-03-04T06:09:10.048Z,1.42
2024-03-04T06:11:37.774Z,1.45
2024-03-04T06:14:05.353Z,1.55
2024-03-04T06:16:32.961Z,0.90
2024-03-04T06:19:00.514Z,1.27
2024-03-04T06:21:28.085Z,1.45
2024-03-04T06:23:55.565Z,1.30
2024-03-04T06:26:23.461Z,1.20
2024-03-04T06:28:51.010Z,1.38
2024-03-04T06:31:18.516Z,1.00
2024-03-04T06:33:52.776Z,1.17
2024-03-04T06:36:23.001Z,1.60
2024-03-04T06:38:51.813Z,1.33
2024-03-04T06:41:19.631Z,1.10
2024-03-04T06:43:47.203Z,1.05
2024-03-04T06:46:14.783Z,1.33
2024-03-04T06:48:42.555Z,1.00
2024-03-04T06:51:10.214Z,1.40
2024-03-04T06:53:40.222Z,1.23
2024-03-04T06:56:13.507Z,1.55
2024-03-04T06:58:42.496Z,1.30
2024-03-04T07:01:10.530Z,1.30
2024-03-04T07:03:39.369Z,1.35
2024-03-04T07:06:09.243Z,1.45
2024-03-04T07:08:36.921Z,1.60
2024-03-04T07:11:04.732Z,1.80
2024-03-04T07:13:32.257Z,1.58
2024-03-04T07:15:59.854Z,1.10
2024-03-04T07:18:32.792Z,1.40
2024-03-04T07:21:03.785Z,1.80
2024-03-04T07:23:31.732Z,1.17
2024-03-04T07:26:00.195Z,1.63
2024-03-04T07:28:27.820Z,3.05
2024-03-04T07:30:55.460Z,1.45
2024-03-04T07:33:25.759Z,1.50
2024-03-04T07:35:53.572Z,2.55
2024-03-04T07:38:21.306Z,1.65
2024-03-04T07:40:49.512Z,1.88
2024-03-04T07:43:17.392Z,1.80
2024-03-04T07:45:45.253Z,2.33
2024-03-04T07:48:13.166Z,1.70
2024-03-04T07:50:43.221Z,1.70
2024-03-04T07:53:10.900Z,2.30
2024-03-04T07:55:38.540Z,1.67
2024-03-04T07:58:06.362Z,2.40
2024-03-04T08:00:34.473Z,2.50
2024-03-04T08:03:02.297Z,2.03
2024-03-04T08:05:30.048Z,1.75
2024-03-04T08:07:57.722Z,1.85
2024-03-04T08:10:25.533Z,1.60
2024-03-04T08:12:53.453Z,1.45
2024-03-04T08:15:21.211Z,1.30
2024-03-04T08:17:55.473Z,1.08
2024-03-04T08:20:33.467Z,1.10
2024-03-04T08:23:05.884Z,1.02
2024-03-04T08:25:33.783Z,1.38
2024-03-04T08:28:02.028Z,1.13
2024-03-04T08:30:29.807Z,1.50
2024-03-04T08:32:57.333Z,1.20
2024-03-04T08:35:24.682Z,1.17
2024-03-04T08:37:52.385Z,1.42
2024-03-04T08:40:19.891Z,1.38
2024-03-04T08:42:48.101Z,1.13
2024-03-04T08:45:17.556Z,1.52
2024-03-04T08:47:45.168Z,1.48
2024-03-04T08:50:12.832Z,2.70
2024-03-04T08:52:40.298Z,1.52
2024-03-04T08:55:08.218Z,1.30
2024-03-04T08:57:35.816Z,1.30
2024-03-04T09:00:05.498Z,0.95
2024-03-04T09:02:33.018Z,1.33
2024-03-04T09:05:00.610Z,1.08
2024-03-04T09:07:28.998Z,1.30
2024-03-04T09:09:56.688Z,0.95
2024-03-04T09:12:27.160Z,0.98
2024-03-04T09:14:54.598Z,1.10
2024-03-04T09:17:23.202Z,0.82
2024-03-04T09:19:55.005Z,0.52
2024-03-04T09:22:23.724Z,0.60
2024-03-04T09:24:51.018Z,1.25
2024-03-04T09:27:18.387Z,0.40
2024-03-04T09:29:45.869Z,0.50
2024-03-04T09:32:13.211Z,0.40
2024-03-04T09:34:40.766Z,0.25
2024-03-04T09:37:09.253Z,0.40
2024-03-04T09:39:36.567Z,0.40
2024-03-04T09:42:04.397Z,0.88
2024-03-04T09:44:31.786Z,0.30
2024-03-04T09:46:59.154Z,0.20
2024-03-04T09:49:31.009Z,0.40
2024-03-04T09:52:01.008Z,0.43
2024-03-04T09:54:32.177Z,0.40
2024-03-04T09:56:59.693Z,0.40
2024-03-04T09:59:27.077Z,0.50
2024-03-04T10:01:58.921Z,0.50
2024-03-04T10:04:27.341Z,0.63
2024-03-04T10:06:55.304Z,0.40
2024-03-04T10:09:23.470Z,0.30
2024-03-04T10:11:51.028Z,0.50
2024-03-04T10:14:18.548Z,0.57
2024-03-04T10:16:46.382Z,0.30
2024-03-04T10:19:20.043Z,0.40
2024-03-04T10:21:48.158Z,0.87
2024-03-04T10:24:15.883Z,0.40
2024-03-04T10:26:47.713Z,0.50
2024-03-04T10:29:17.365Z,0.43
2024-03-04T10:31:55.687Z,0.30
2024-03-04T10:34:23.420Z,0.40
2024-03-04T10:36:52.711Z,0.35
2024-03-04T10:39:20.356Z,0.70
2024-03-04T10:41:48.778Z,0.60
2024-03-04T10:44:26.686Z,0.73
2024-03-04T10:46:58.846Z,0.50
2024-03-04T10:49:30.192Z,0.85
2024-03-04T10:52:08.125Z,0.40
2024-03-04T10:54:42.487Z,0.60
2024-03-04T10:57:27.820Z,0.63
2024-03-04T11:00:03.347Z,0.80
2024-03-04T11:02:41.938Z,0.60
2024-03-04T11:05:12.773Z,0.60
2024-03-04T11:07:43.999Z,0.55
2024-03-04T11:10:43.004Z,0.60
2024-03-04T11:13:39.978Z,0.50
2024-03-04T11:16:10.116Z,0.60
2024-03-04T11:18:41.857Z,0.85
2024-03-04T11:21:09.304Z,2.47
2024-03-04T11:23:37.357Z,0.85
2024-03-04T11:26:05.356Z,0.80
2024-03-04T11:28:34.693Z,0.75
2024-03-04T11:31:05.618Z,0.57
2024-03-04T11:33:41.440Z,0.55
2024-03-04T11:36:10.757Z,0.70
2024-03-04T11:38:46.497Z,0.63
2024-03-04T11:41:34.358Z,0.43
2024-03-04T11:44:01.712Z,0.73
2024-03-04T11:46:32.717Z,0.60
2024-03-04T11:49:26.200Z,0.77
2024-03-04T11:52:11.550Z,0.60
2024-03-04T11:54:41.001Z,0.50
2024-03-04T11:57:09.360Z,0.50
2024-03-04T11:59:41.277Z,0.40
2024-03-04T12:02:12.173Z,0.60
2024-03-04T12:04:42.702Z,0.50
2024-03-04T12:07:10.491Z,0.57
2024-03-04T12:09:50.836Z,0.47
2024-03-04T12:12:25.200Z,0.40
2024-03-04T12:14:53.173Z,0.50
2024-03-04T12:17:20.581Z,0.55
2024-03-04T12:19:58.660Z,0.40
2024-03-04T12:22:32.272Z,0.55
2024-03-04T12:25:11.724Z,1.20
2024-03-04T12:27:43.115Z,0.50
2024-03-04T12:30:10.588Z,0.45
2024-03-04T12:32:39.128Z,0.45
2024-03-04T12:35:18.808Z,0.40
2024-03-04T12:37:53.245Z,0.60
2024-03-04T12:40:22.143Z,0.55
2024-03-04T12:43:05.993Z,0.35
2024-03-04T12:45:35.090Z,0.43
2024-03-04T12:48:02.811Z,0.50
2024-03-04T12:50:31.111Z,0.47
2024-03-04T12:52:59.599Z,0.50
2024-03-04T12:55:27.517Z,0.70
2024-03-04T12:57:57.708Z,1.30
2024-03-04T13:00:26.287Z,0.60
2024-03-04T13:02:53.755Z,0.60
2024-03-04T13:05:21.050Z,0.50
2024-03-04T13:07:48.556Z,0.70
2024-03-04T13:10:17.057Z,0.40
2024-03-04T13:12:46.120Z,0.80
2024-03-04T13:15:13.768Z,0.60
2024-03-04T13:17:46.087Z,0.55
2024-03-04T13:20:17.030Z,0.93
2024-03-04T13:22:50.410Z,0.40
2024-03-04T13:25:19.445Z,0.82
2024-03-04T13:27:48.053Z,0.70
2024-03-04T13:30:15.958Z,0.40
2024-03-04T13:32:43.699Z,0.50
2024-03-04T13:35:11.411Z,0.80
2024-03-04T13:37:39.487Z,0.80
2024-03-04T13:40:10.896Z,0.90
2024-03-04T13:42:38.372Z,0.40
2024-03-04T13:45:08.905Z,0.45
2024-03-04T13:47:36.982Z,0.52
2024-03-04T13:50:04.715Z,0.60
2024-03-04T13:52:32.233Z,0.73
2024-03-04T13:55:01.187Z,0.40
2024-03-04T13:57:28.577Z,0.57
2024-03-04T13:59:55.822Z,0.50
2024-03-04T14:02:25.699Z,0.50
2024-03-04T14:04:53.435Z,0.60
2024-03-04T14:07:23.573Z,0.40
2024-03-04T14:09:52.155Z,0.47
2024-03-04T14:12:19.594Z,0.40
2024-03-04T14:14:46.843Z,0.40
2024-03-04T14:17:14.136Z,0.77
2024-03-04T14:19:42.190Z,0.40
2024-03-04T14:22:09.774Z,0.50
2024-03-04T14:24:37.071Z,0.50
2024-03-04T14:27:06.594Z,0.40
2024-03-04T14:29:34.535Z,0.88
2024-03-04T14:32:02.011Z,0.40
2024-03-04T14:34:31.409Z,0.43
2024-03-04T14:36:58.646Z,0.35
2024-03-04T14:39:26.024Z,0.52
2024-03-04T14:41:53.333Z,0.50
2024-03-04T14:44:20.759Z,0.50
2024-03-04T14:46:48.327Z,0.57
2024-03-04T14:49:15.800Z,0.65
2024-03-04T14:51:43.225Z,0.40
2024-03-04T14:54:10.699Z,0.40
2024-03-04T14:56:38.721Z,0.63
2024-03-04T14:59:06.056Z,0.40
2024-03-04T15:01:34.674Z,0.40
2024-03-04T15:04:02.063Z,0.40
2024-03-04T15:06:30.729Z,0.43
2024-03-04T15:08:58.059Z,0.57
2024-03-04T15:11:25.502Z,0.60
2024-03-04T15:13:55.436Z,0.60
2024-03-04T15:16:24.139Z,0.50
2024-03-04T15:18:51.462Z,0.50
2024-03-04T15:21:18.752Z,0.40
2024-03-04T15:23:46.123Z,0.70
2024-03-04T15:26:13.406Z,0.50
2024-03-04T15:28:40.950Z,0.55
2024-03-04T15:31:08.293Z,0.60
2024-03-04T15:33:35.563Z,0.65
2024-03-04T15:36:13.226Z,0.50
2024-03-04T15:38:45.216Z,0.68
2024-03-04T15:41:12.539Z,0.80
2024-03-04T15:43:39.951Z,0.57
2024-03-04T15:46:08.249Z,0.30
2024-03-04T15:48:36.703Z,1.05
2024-03-04T15:51:06.435Z,0.50
2024-03-04T15:53:35.110Z,1.83
2024-03-04T15:56:04.788Z,0.70
2024-03-04T15:58:32.629Z,0.70
2024-03-04T16:01:00.041Z,0.75
2024-03-04T16:03:27.485Z,1.20
2024-03-04T16:05:55.245Z,0.82
2024-03-04T16:08:22.701Z,0.90
2024-03-04T16:10:50.234Z,0.95
2024-03-04T16:13:18.261Z,0.90
2024-03-04T16:15:52.544Z,1.27
2024-03-04T16:18:21.735Z,1.30
2024-03-04T16:20:49.169Z,0.80
2024-03-04T16:23:16.397Z,0.98
2024-03-04T16:25:43.711Z,0.70
2024-03-04T16:28:11.040Z,1.38
2024-03-04T16:30:38.459Z,0.50
2024-03-04T16:33:06.494Z,1.77
2024-03-04T16:35:33.929Z,0.75
2024-03-04T16:38:01.342Z,0.95
2024-03-04T16:40:28.735Z,0.70
2024-03-04T16:42:56.039Z,0.60
2024-03-04T16:45:23.448Z,0.52
2024-03-04T16:47:50.958Z,0.70
2024-03-04T16:50:18.773Z,1.15
2024-03-04T16:52:51.981Z,0.85
2024-03-04T16:55:20.591Z,0.60
2024-03-04T16:57:48.693Z,0.70
2024-03-04T17:00:18.257Z,0.60
2024-03-04T17:02:46.376Z,0.60
2024-03-04T17:05:14.361Z,0.70
2024-03-04T17:07:45.067Z,0.88
2024-03-04T17:10:15.126Z,1.30
2024-03-04T17:12:43.570Z,0.55
2024-03-04T17:15:14.341Z,0.52
2024-03-04T17:17:45.231Z,0.70
2024-03-04T17:20:14.275Z,0.60
2024-03-04T17:22:43.680Z,0.80
2024-03-04T17:25:11.581Z,0.60
2024-03-04T17:27:40.898Z,1.10
2024-03-04T17:30:10.116Z,0.90
2024-03-04T17:32:38.963Z,0.93
2024-03-04T17:35:07.045Z,0.50
2024-03-04T17:37:35.088Z,0.93
2024-03-04T17:40:05.660Z,0.82
2024-03-04T17:42:33.685Z,0.70
2024-03-04T17:45:01.544Z,0.80
2024-03-04T17:47:29.453Z,0.60
2024-03-04T17:49:57.374Z,1.10
2024-03-04T17:52:25.156Z,0.90
2024-03-04T17:54:53.112Z,0.80
2024-03-04T17:57:21.267Z,0.70
2024-03-04T17:59:49.560Z,1.30
2024-03-04T18:02:19.730Z,0.70
2024-03-04T18:04:49.035Z,0.88
2024-03-04T18:07:25.987Z,0.88
2024-03-04T18:09:53.756Z,0.80
2024-03-04T18:12:21.614Z,0.70
2024-03-04T18:14:49.313Z,0.63
2024-03-04T18:17:18.986Z,0.80
2024-03-04T18:19:46.953Z,0.85
2024-03-04T18:22:16.923Z,0.80
2024-03-04T18:24:44.664Z,0.60
2024-03-04T18:27:12.456Z,0.70
2024-03-04T18:29:41.221Z,0.70
2024-03-04T18:32:09.629Z,0.60
2024-03-04T18:34:37.399Z,0.50
2024-03-04T18:37:05.427Z,0.73
2024-03-04T18:39:34.374Z,0.60
2024-03-04T18:42:04.690Z,0.50
2024-03-04T18:44:32.520Z,0.70
2024-03-04T18:47:00.143Z,1.00
2024-03-04T18:49:28.514Z,0.60
2024-03-04T18:51:56.259Z,0.80
2024-03-04T18:54:23.863Z,0.82
2024-03-04T18:56:51.694Z,0.77
2024-03-04T18:59:19.537Z,0.95
2024-03-04T19:01:47.432Z,0.75
2024-03-04T19:04:15.562Z,0.88
2024-03-04T19:06:44.274Z,0.60
2024-03-04T19:09:12.689Z,0.60
2024-03-04T19:11:40.460Z,0.60
2024-03-04T19:14:08.161Z,0.85
2024-03-04T19:16:36.287Z,1.00
2024-03-04T19:19:04.533Z,1.38
2024-03-04T19:21:32.545Z,0.80
2024-03-04T19:24:00.521Z,0.80
2024-03-04T19:26:28.674Z,0.63
2024-03-04T19:28:56.427Z,0.80
2024-03-04T19:31:25.517Z,0.50
2024-03-04T19:33:57.060Z,0.70
2024-03-04T19:36:24.896Z,0.70
2024-03-04T19:38:52.793Z,0.50
2024-03-04T19:41:25.124Z,0.50
2024-03-04T19:43:53.654Z,0.75
2024-03-04T19:46:23.618Z,0.50
2024-03-04T19:48:53.074Z,0.43
2024-03-04T19:51:26.543Z,1.00
2024-03-04T19:53:55.061Z,0.50
2024-03-04T19:56:23.039Z,1.00
2024-03-04T19:58:50.853Z,0.88
2024-03-04T20:01:20.053Z,0.63
2024-03-04T20:03:47.791Z,0.60
2024-03-04T20:06:17.194Z,0.55
2024-03-04T20:08:46.962Z,0.68
2024-03-04T20:11:15.635Z,0.60
2024-03-04T20:13:44.987Z,0.40
2024-03-04T20:16:17.009Z,0.50
2024-03-04T20:18:45.479Z,0.40
2024-03-04T20:21:15.907Z,0.50
2024-03-04T20:23:45.771Z,0.50
2024-03-04T20:26:14.276Z,0.50
2024-03-04T20:28:43.230Z,0.60
2024-03-04T20:31:11.455Z,1.45
2024-03-04T20:33:40.813Z,0.82
2024-03-04T20:36:08.844Z,0.43
2024-03-04T20:38:36.666Z,0.40
2024-03-04T20:41:06.632Z,0.40
2024-03-04T20:43:34.987Z,0.60
2024-03-04T20:46:03.221Z,0.40
2024-03-04T20:48:31.604Z,0.40
2024-03-04T20:50:59.544Z,0.50
2024-03-04T20:53:27.639Z,0.57
2024-03-04T20:55:56.064Z,0.40
2024-03-04T20:58:24.280Z,0.60
2024-03-04T21:00:52.374Z,0.50
2024-03-04T21:03:22.911Z,0.40
2024-03-04T21:05:52.184Z,0.60
2024-03-04T21:08:20.277Z,0.50
2024-03-04T21:10:48.549Z,0.30
2024-03-04T21:13:16.682Z,0.40
2024-03-04T21:15:44.545Z,0.40
2024-03-04T21:18:12.520Z,0.30
2024-03-04T21:20:40.290Z,0.20
2024-03-04T21:23:08.087Z,0.30
2024-03-04T21:25:37.003Z,0.25
2024-03-04T21:28:05.022Z,0.30
2024-03-04T21:30:35.245Z,0.25
2024-03-04T21:33:03.214Z,0.40
2024-03-04T21:35:31.118Z,0.30
2024-03-04T21:37:58.830Z,0.20
2024-03-04T21:40:27.379Z,0.40
2024-03-04T21:42:55.259Z,0.30
2024-03-04T21:45:22.889Z,0.30
2024-03-04T21:47:50.888Z,0.40
2024-03-04T21:50:19.016Z,0.70
2024-03-04T21:52:47.113Z,0.50
2024-03-04T21:55:15.233Z,0.30
2024-03-04T21:57:43.291Z,0.57
2024-03-04T22:00:17.635Z,0.38
2024-03-04T22:02:46.800Z,0.40
2024-03-04T22:05:14.894Z,0.50
2024-03-04T22:07:43.428Z,0.22
2024-03-04T22:10:12.810Z,0.50
2024-03-04T22:12:41.427Z,0.75
2024-03-04T22:15:11.389Z,0.30
2024-03-04T22:17:39.686Z,0.32
2024-03-04T22:20:11.483Z,0.30
2024-03-04T22:22:39.890Z,0.40
2024-03-04T22:25:10.524Z,0.50
2024-03-04T22:27:38.326Z,0.60
2024-03-04T22:30:07.940Z,0.50
2024-03-04T22:32:37.892Z,0.77
2024-03-04T22:35:09.144Z,0.40
2024-03-04T22:37:36.827Z,0.40
2024-03-04T22:40:09.385Z,0.30
2024-03-04T22:42:37.170Z,1.05
2024-03-04T22:45:05.152Z,0.70
2024-03-04T22:47:33.148Z,0.50
2024-03-04T22:50:01.092Z,0.40
2024-03-04T22:52:28.984Z,0.30
2024-03-04T22:54:56.631Z,1.58
2024-03-04T22:57:26.169Z,0.40
2024-03-04T22:59:53.958Z,0.40
2024-03-04T23:02:21.821Z,0.30
2024-03-04T23:04:51.352Z,0.32
2024-03-04T23:07:19.190Z,0.40
2024-03-04T23:09:47.139Z,0.50
2024-03-04T23:12:16.885Z,0.65
2024-03-04T23:14:46.136Z,0.30
2024-03-04T23:17:14.724Z,0.50
2024-03-04T23:19:43.320Z,0.30
2024-03-04T23:22:11.359Z,0.40
2024-03-04T23:24:39.098Z,0.40
2024-03-04T23:27:06.768Z,0.85
2024-03-04T23:29:35.036Z,0.40
2024-03-04T23:32:02.993Z,0.40
2024-03-04T23:34:30.913Z,0.60
2024-03-04T23:36:59.617Z,0.80
2024-03-04T23:39:27.971Z,0.47
2024-03-04T23:41:55.545Z,1.90
2024-03-04T23:44:26.684Z,0.60
2024-03-04T23:46:54.705Z,0.57
2024-03-04T23:49:23.584Z,0.60
2024-03-04T23:51:51.767Z,0.40
2024-03-04T23:54:19.670Z,0.38
2024-03-04T23:56:47.892Z,0.45
2024-03-04T23:59:15.569Z,0.50
